createdAt,value
2022-10-30T00:00:49.925Z,11.40
2022-10-30T00:03:18.439Z,11.30
2022-10-30T00:05:49.594Z,11.30
2022-10-30T00:08:20.993Z,11.20
2022-10-30T00:10:50.416Z,11.20
2022-10-30T00:13:19.079Z,11.10
2022-10-30T00:15:52.233Z,11.10
2022-10-30T00:18:20.495Z,11.10
2022-10-30T00:20:50.127Z,11.00
2022-10-30T00:23:18.090Z,11.00
2022-10-30T00:25:46.143Z,11.00
2022-10-30T00:28:14.168Z,10.90
2022-10-30T00:30:42.125Z,10.90
2022-10-30T00:33:10.200Z,10.90
2022-10-30T00:35:38.363Z,10.80
2022-10-30T00:38:07.671Z,10.80
2022-10-30T00:40:35.576Z,10.70
2022-10-30T00:43:03.705Z,10.70
2022-10-30T00:45:31.999Z,10.70
2022-10-30T00:48:03.050Z,10.80
2022-10-30T00:50:33.513Z,10.80
2022-10-30T00:53:05.996Z,10.70
2022-10-30T00:55:39.225Z,10.70
2022-10-30T00:58:11.911Z,10.70
2022-10-30T01:00:42.797Z,10.80
2022-10-30T01:03:11.419Z,10.70
2022-10-30T01:05:40.722Z,10.70
2022-10-30T01:08:08.768Z,10.70
2022-10-30T01:10:38.857Z,10.70
2022-10-30T01:13:07.645Z,10.60
2022-10-30T01:15:39.264Z,10.60
2022-10-30T01:18:29.871Z,10.60
2022-10-30T01:21:32.174Z,10.60
2022-10-30T01:24:15.661Z,10.60
2022-10-30T01:26:53.952Z,10.50
2022-10-30T01:29:35.615Z,10.50
2022-10-30T01:32:19.241Z,10.50
2022-10-30T01:34:56.374Z,10.50
2022-10-30T01:37:32.876Z,10.50
2022-10-30T01:40:06.594Z,10.50
2022-10-30T01:42:51.124Z,10.50
2022-10-30T01:45:32.354Z,10.50
2022-10-30T01:48:19.420Z,10.50
2022-10-30T01:50:55.072Z,10.50
2022-10-30T01:53:38.101Z,10.50
2022-10-30T01:56:16.849Z,10.60
2022-10-30T01:58:52.699Z,10.60
2022-10-30T02:01:22.015Z,10.50
2022-10-30T02:03:50.504Z,10.50
2022-10-30T02:06:18.991Z,10.40
2022-10-30T02:08:46.971Z,10.40
2022-10-30T02:11:15.605Z,10.40
2022-10-30T02:13:43.879Z,10.40
2022-10-30T02:16:13.232Z,10.30
2022-10-30T02:18:41.746Z,10.30
2022-10-30T02:21:11.248Z,10.30
2022-10-30T02:23:39.259Z,10.30
2022-10-30T02:26:07.449Z,10.30
2022-10-30T02:28:35.480Z,10.20
2022-10-30T02:31:03.508Z,10.20
2022-10-30T02:33:31.420Z,10.20
2022-10-30T02:35:59.525Z,10.20
2022-10-30T02:38:28.754Z,10.20
2022-10-30T02:40:58.735Z,10.20
2022-10-30T02:43:26.711Z,10.20
2022-10-30T02:45:55.465Z,10.20
2022-10-30T02:48:23.410Z,10.20
2022-10-30T02:50:51.244Z,10.20
2022-10-30T02:53:19.144Z,10.30
2022-10-30T02:55:48.462Z,10.30
2022-10-30T02:58:16.543Z,10.30
2022-10-30T03:00:44.645Z,10.30
2022-10-30T03:03:12.616Z,10.40
2022-10-30T03:05:40.925Z,10.40
2022-10-30T03:08:08.998Z,10.40
2022-10-30T03:10:37.034Z,10.50
2022-10-30T03:13:06.390Z,10.40
2022-10-30T03:15:34.291Z,10.50
2022-10-30T03:18:02.241Z,10.50
2022-10-30T03:20:30.169Z,10.60
2022-10-30T03:22:58.207Z,10.50
2022-10-30T03:25:26.263Z,10.50
2022-10-30T03:27:54.202Z,10.50
2022-10-30T03:30:23.501Z,10.50
2022-10-30T03:32:51.504Z,10.60
2022-10-30T03:35:19.463Z,10.60
2022-10-30T03:37:47.472Z,10.60
2022-10-30T03:40:15.544Z,10.60
2022-10-30T03:42:43.511Z,10.60
2022-10-30T03:45:11.907Z,10.60
2022-10-30T03:47:42.504Z,10.60
2022-10-30T03:50:10.932Z,10.70
2022-10-30T03:52:38.916Z,10.70
2022-10-30T03:55:07.881Z,10.80
2022-10-30T03:57:38.285Z,10.90
2022-10-30T04:00:07.474Z,10.90
2022-10-30T04:02:35.386Z,11.00
2022-10-30T04:05:05.079Z,11.10
2022-10-30T04:07:33.048Z,11.20
2022-10-30T04:10:01.117Z,11.30
2022-10-30T04:12:29.055Z,11.40
2022-10-30T04:14:57.323Z,11.40
2022-10-30T04:17:25.259Z,11.50
2022-10-30T04:19:53.281Z,11.50
2022-10-30T04:22:22.656Z,11.50
2022-10-30T04:24:50.794Z,11.50
2022-10-30T04:27:20.017Z,11.50
2022-10-30T04:29:48.260Z,11.60
2022-10-30T04:32:16.218Z,11.60
2022-10-30T04:34:44.236Z,11.50
2022-10-30T04:37:12.200Z,11.50
2022-10-30T04:39:45.464Z,11.60
2022-10-30T04:42:14.698Z,11.60
2022-10-30T04:44:42.814Z,11.60
2022-10-30T04:47:10.694Z,11.60
2022-10-30T04:49:38.764Z,11.60
2022-10-30T04:52:06.663Z,11.60
2022-10-30T04:54:34.611Z,11.60
2022-10-30T04:57:04.450Z,11.60
2022-10-30T04:59:32.421Z,11.60
2022-10-30T05:02:00.506Z,11.60
2022-10-30T05:04:28.625Z,11.60
2022-10-30T05:06:56.513Z,11.60
2022-10-30T05:09:24.498Z,11.60
2022-10-30T05:11:54.919Z,11.50
2022-10-30T05:14:30.329Z,11.50
2022-10-30T05:16:58.501Z,11.50
2022-10-30T05:19:26.723Z,11.50
2022-10-30T05:21:55.532Z,11.50
2022-10-30T05:24:23.470Z,11.50
2022-10-30T05:26:52.127Z,11.50
2022-10-30T05:29:20.033Z,11.50
2022-10-30T05:31:49.355Z,11.40
2022-10-30T05:34:17.386Z,11.40
2022-10-30T05:36:45.425Z,11.30
2022-10-30T05:39:13.426Z,11.30
2022-10-30T05:41:41.328Z,11.30
2022-10-30T05:44:09.230Z,11.30
2022-10-30T05:46:37.070Z,11.30
2022-10-30T05:49:06.305Z,11.30
2022-10-30T05:51:37.954Z,11.30
2022-10-30T05:54:08.453Z,11.20
2022-10-30T05:56:36.388Z,11.30
2022-10-30T05:59:04.376Z,11.20
2022-10-30T06:01:32.418Z,11.30
2022-10-30T06:04:00.606Z,11.20
2022-10-30T06:06:30.028Z,11.20
2022-10-30T06:08:57.969Z,11.20
2022-10-30T06:11:25.957Z,11.20
2022-10-30T06:13:53.963Z,11.10
2022-10-30T06:16:22.043Z,11.10
2022-10-30T06:18:50.062Z,11.10
2022-10-30T06:21:18.177Z,11.20
2022-10-30T06:23:49.395Z,11.20
2022-10-30T06:26:17.404Z,11.20
2022-10-30T06:28:45.339Z,11.20
2022-10-30T06:31:13.399Z,11.10
2022-10-30T06:33:41.711Z,11.20
2022-10-30T06:36:09.825Z,11.20
2022-10-30T06:38:37.691Z,11.20
2022-10-30T06:41:07.148Z,11.20
2022-10-30T06:43:35.360Z,11.20
2022-10-30T06:46:03.389Z,11.20
2022-10-30T06:48:31.571Z,11.20
2022-10-30T06:51:00.954Z,11.20
2022-10-30T06:53:28.947Z,11.20
2022-10-30T06:55:58.892Z,11.20
2022-10-30T06:58:30.474Z,11.30
2022-10-30T07:01:01.087Z,11.40
2022-10-30T07:03:29.054Z,11.40
2022-10-30T07:05:57.079Z,11.50
2022-10-30T07:08:25.052Z,11.50
2022-10-30T07:10:53.085Z,11.60
2022-10-30T07:13:21.133Z,11.60
2022-10-30T07:15:50.488Z,11.70
2022-10-30T07:18:18.437Z,11.80
2022-10-30T07:20:46.381Z,11.80
2022-10-30T07:23:14.384Z,11.90
2022-10-30T07:25:42.298Z,12.00
2022-10-30T07:28:10.236Z,12.10
2022-10-30T07:30:38.119Z,12.20
2022-10-30T07:33:08.887Z,12.30
2022-10-30T07:35:37.561Z,12.40
2022-10-30T07:38:07.482Z,12.60
2022-10-30T07:40:35.728Z,12.70
2022-10-30T07:43:05.247Z,12.80
2022-10-30T07:45:33.908Z,12.90
2022-10-30T07:48:02.440Z,13.10
2022-10-30T07:50:32.192Z,13.10
2022-10-30T07:53:00.183Z,13.20
2022-10-30T07:55:28.145Z,13.20
2022-10-30T07:57:56.405Z,13.30
2022-10-30T08:00:24.854Z,13.20
2022-10-30T08:02:57.272Z,13.20
2022-10-30T08:05:29.128Z,13.20
2022-10-30T08:07:59.756Z,13.40
2022-10-30T08:10:28.197Z,13.50
2022-10-30T08:12:56.123Z,13.60
2022-10-30T08:15:24.458Z,13.80
2022-10-30T08:17:53.188Z,14.10
2022-10-30T08:20:23.107Z,14.40
2022-10-30T08:22:52.184Z,14.80
2022-10-30T08:25:23.072Z,15.10
2022-10-30T08:27:53.333Z,15.50
2022-10-30T08:30:21.471Z,15.90
2022-10-30T08:32:49.507Z,16.10
2022-10-30T08:35:20.142Z,16.30
2022-10-30T08:37:48.317Z,16.60
2022-10-30T08:40:16.378Z,16.70
2022-10-30T08:42:51.573Z,16.70
2022-10-30T08:45:19.896Z,16.80
2022-10-30T08:47:47.818Z,17.00
2022-10-30T08:50:15.961Z,17.20
2022-10-30T08:52:44.060Z,17.40
2022-10-30T08:55:12.048Z,17.50
2022-10-30T08:57:40.093Z,17.70
2022-10-30T09:00:10.588Z,17.90
2022-10-30T09:02:40.490Z,18.00
2022-10-30T09:05:09.603Z,18.20
2022-10-30T09:07:37.807Z,18.30
2022-10-30T09:10:07.600Z,18.40
2022-10-30T09:12:35.787Z,18.50
2022-10-30T09:15:04.167Z,18.60
2022-10-30T09:17:33.555Z,18.70
2022-10-30T09:20:01.498Z,18.80
2022-10-30T09:22:29.487Z,18.90
2022-10-30T09:24:57.461Z,18.90
2022-10-30T09:27:25.628Z,19.00
2022-10-30T09:29:53.578Z,19.20
2022-10-30T09:32:21.470Z,19.20
2022-10-30T09:34:50.794Z,19.20
2022-10-30T09:37:19.220Z,19.30
2022-10-30T09:39:47.242Z,19.30
2022-10-30T09:42:37.675Z,19.30
2022-10-30T09:45:30.084Z,19.40
2022-10-30T09:48:12.288Z,19.40
2022-10-30T09:50:54.794Z,19.40
2022-10-30T09:53:30.436Z,19.50
2022-10-30T09:56:06.185Z,19.60
2022-10-30T09:58:45.456Z,19.70
2022-10-30T10:01:18.510Z,19.80
2022-10-30T10:03:59.406Z,20.00
2022-10-30T10:06:29.646Z,20.00
2022-10-30T10:09:03.763Z,20.00
2022-10-30T10:11:37.283Z,20.00
2022-10-30T10:14:10.192Z,20.00
2022-10-30T10:16:41.880Z,20.00
2022-10-30T10:19:15.741Z,20.00
2022-10-30T10:21:48.976Z,20.10
2022-10-30T10:24:22.065Z,20.10
2022-10-30T10:26:51.623Z,19.90
2022-10-30T10:29:35.078Z,19.90
2022-10-30T10:32:38.659Z,19.90
2022-10-30T10:35:34.431Z,19.90
2022-10-30T10:38:12.020Z,19.90
2022-10-30T10:40:51.163Z,19.80
2022-10-30T10:43:29.530Z,19.70
2022-10-30T10:46:11.666Z,19.60
2022-10-30T10:48:59.980Z,19.60
2022-10-30T10:51:32.246Z,19.70
2022-10-30T10:54:04.926Z,19.70
2022-10-30T10:56:37.044Z,19.80
2022-10-30T10:59:09.065Z,19.70
2022-10-30T11:01:40.763Z,19.70
2022-10-30T11:04:15.798Z,19.60
2022-10-30T11:06:48.872Z,19.60
2022-10-30T11:09:20.335Z,19.60
2022-10-30T11:11:49.021Z,19.60
2022-10-30T11:14:19.139Z,19.60
2022-10-30T11:17:03.469Z,19.60
2022-10-30T11:19:32.614Z,19.60
2022-10-30T11:22:02.070Z,19.70
2022-10-30T11:24:33.867Z,19.70
2022-10-30T11:27:25.032Z,19.70
2022-10-30T11:29:55.559Z,19.60
2022-10-30T11:32:30.559Z,19.70
2022-10-30T11:35:03.435Z,19.70
2022-10-30T11:37:32.928Z,19.70
2022-10-30T11:40:07.740Z,19.70
2022-10-30T11:42:36.309Z,19.80
2022-10-30T11:45:05.475Z,19.90
2022-10-30T11:50:07.400Z,20.10
2022-10-30T11:52:39.872Z,20.00
2022-10-30T11:55:17.478Z,20.10
2022-10-30T11:57:47.661Z,20.10
2022-10-30T12:00:24.481Z,20.20
2022-10-30T12:02:54.750Z,20.20
2022-10-30T12:05:36.039Z,20.10
2022-10-30T12:08:20.167Z,20.20
2022-10-30T12:11:00.544Z,20.20
2022-10-30T12:13:32.073Z,20.40
2022-10-30T12:16:09.509Z,20.40
2022-10-30T12:18:38.014Z,20.40
2022-10-30T12:21:06.107Z,20.30
2022-10-30T12:23:34.726Z,20.30
2022-10-30T12:26:11.571Z,20.20
2022-10-30T12:28:40.553Z,20.30
2022-10-30T12:31:14.675Z,20.30
2022-10-30T12:33:46.516Z,20.30
2022-10-30T12:36:17.660Z,20.30
2022-10-30T12:38:50.805Z,20.30
2022-10-30T12:41:24.849Z,20.20
2022-10-30T12:44:00.000Z,20.20
2022-10-30T12:46:34.888Z,20.10
2022-10-30T12:49:12.816Z,20.10
2022-10-30T12:51:48.358Z,20.10
2022-10-30T12:54:25.698Z,20.10
2022-10-30T12:57:09.333Z,20.20
2022-10-30T12:59:45.499Z,20.20
2022-10-30T13:02:22.806Z,20.30
2022-10-30T13:04:57.890Z,20.30
2022-10-30T13:07:31.080Z,20.30
2022-10-30T13:10:12.372Z,20.30
2022-10-30T13:12:44.903Z,20.40
2022-10-30T13:15:22.101Z,20.40
2022-10-30T13:17:50.939Z,20.40
2022-10-30T13:20:19.871Z,20.30
2022-10-30T13:22:51.963Z,20.20
2022-10-30T13:25:29.079Z,20.10
2022-10-30T13:28:05.788Z,20.10
2022-10-30T13:30:38.576Z,20.10
2022-10-30T13:33:13.181Z,20.00
2022-10-30T13:35:48.349Z,20.10
2022-10-30T13:38:34.178Z,20.00
2022-10-30T13:41:11.163Z,20.10
2022-10-30T13:43:48.516Z,20.00
2022-10-30T13:46:37.627Z,19.90
2022-10-30T13:49:20.696Z,20.00
2022-10-30T13:51:56.398Z,20.00
2022-10-30T13:54:29.837Z,20.00
2022-10-30T13:57:02.515Z,20.00
2022-10-30T13:59:57.115Z,20.00
2022-10-30T14:02:38.945Z,19.90
2022-10-30T14:05:19.425Z,19.80
2022-10-30T14:07:53.528Z,19.60
2022-10-30T14:10:33.299Z,19.50
2022-10-30T14:13:16.075Z,19.40
2022-10-30T14:15:47.123Z,19.20
2022-10-30T14:18:45.798Z,19.00
2022-10-30T14:21:53.525Z,19.00
2022-10-30T14:24:29.728Z,18.80
2022-10-30T14:27:12.336Z,18.70
2022-10-30T14:29:46.817Z,18.50
2022-10-30T14:32:48.923Z,18.50
2022-10-30T14:35:34.771Z,18.30
2022-10-30T14:38:26.383Z,18.20
2022-10-30T14:41:21.817Z,18.10
2022-10-30T14:44:00.645Z,18.00
2022-10-30T14:46:37.006Z,17.90
2022-10-30T14:49:26.069Z,17.80
2022-10-30T14:52:09.189Z,17.70
2022-10-30T14:54:46.583Z,17.50
2022-10-30T14:57:23.079Z,17.40
2022-10-30T15:00:10.979Z,17.30
2022-10-30T15:02:48.921Z,17.20
2022-10-30T15:05:42.690Z,17.10
2022-10-30T15:08:30.743Z,16.90
2022-10-30T15:11:19.559Z,16.80
2022-10-30T15:13:49.799Z,16.70
2022-10-30T15:16:22.088Z,16.60
2022-10-30T15:18:56.953Z,16.50
2022-10-30T15:21:29.689Z,16.40
2022-10-30T15:24:00.697Z,16.20
2022-10-30T15:26:35.253Z,16.20
2022-10-30T15:29:04.903Z,16.00
2022-10-30T15:31:33.423Z,16.00
2022-10-30T15:34:01.405Z,15.90
2022-10-30T15:36:41.465Z,15.70
2022-10-30T15:39:13.610Z,15.60
2022-10-30T15:41:45.823Z,15.50
2022-10-30T15:46:52.048Z,15.30
2022-10-30T15:49:29.769Z,15.20
2022-10-30T15:52:00.842Z,15.00
2022-10-30T15:54:30.164Z,15.00
2022-10-30T15:57:36.499Z,14.90
2022-10-30T15:59:52.196Z,14.80
2022-10-30T16:02:23.068Z,14.70
2022-10-30T16:04:51.478Z,14.50
2022-10-30T16:07:22.649Z,14.50
2022-10-30T16:09:55.096Z,14.40
2022-10-30T16:12:26.886Z,14.30
2022-10-30T16:14:55.434Z,14.30
2022-10-30T16:17:24.966Z,14.20
2022-10-30T16:19:55.457Z,14.10
2022-10-30T16:22:27.934Z,14.00
2022-10-30T16:24:57.916Z,14.00
2022-10-30T16:27:27.479Z,13.90
2022-10-30T16:29:59.360Z,13.80
2022-10-30T16:32:30.944Z,13.70
2022-10-30T16:35:00.789Z,13.70
2022-10-30T16:37:36.294Z,13.60
2022-10-30T16:40:07.777Z,13.50
2022-10-30T16:42:35.908Z,13.40
2022-10-30T16:45:46.000Z,13.30
2022-10-30T16:48:28.716Z,13.30
2022-10-30T16:51:02.296Z,13.30
2022-10-30T16:53:32.359Z,13.30
2022-10-30T16:56:00.840Z,13.20
2022-10-30T16:58:31.934Z,13.10
2022-10-30T17:01:05.077Z,13.10
2022-10-30T17:03:38.330Z,13.00
2022-10-30T17:06:25.739Z,12.90
2022-10-30T17:08:58.424Z,12.90
2022-10-30T17:11:38.188Z,12.80
2022-10-30T17:14:17.996Z,12.80
2022-10-30T17:16:54.907Z,12.70
2022-10-30T17:19:48.440Z,12.60
2022-10-30T17:22:20.592Z,12.60
2022-10-30T17:24:50.190Z,12.50
2022-10-30T17:27:31.648Z,12.50
2022-10-30T17:30:00.352Z,12.40
2022-10-30T17:32:29.710Z,12.30
2022-10-30T17:35:02.691Z,12.30
2022-10-30T17:37:30.628Z,12.30
2022-10-30T17:39:59.925Z,12.20
2022-10-30T17:42:27.954Z,12.20
2022-10-30T17:44:55.932Z,12.20
2022-10-30T17:47:24.083Z,12.10
2022-10-30T17:49:52.075Z,12.10
2022-10-30T17:52:21.640Z,12.00
2022-10-30T17:54:50.351Z,12.00
2022-10-30T17:57:19.818Z,11.90
2022-10-30T17:59:47.738Z,11.90
2022-10-30T18:02:18.034Z,11.90
2022-10-30T18:04:47.640Z,11.80
2022-10-30T18:07:17.819Z,11.80
2022-10-30T18:09:46.008Z,11.70
2022-10-30T18:12:15.833Z,11.70
2022-10-30T18:14:45.987Z,11.60
2022-10-30T18:17:14.133Z,11.60
2022-10-30T18:19:42.011Z,11.60
2022-10-30T18:22:11.518Z,11.50
2022-10-30T18:24:39.465Z,11.50
2022-10-30T18:27:07.529Z,11.40
2022-10-30T18:29:35.493Z,11.40
2022-10-30T18:32:09.468Z,11.40
2022-10-30T18:34:38.019Z,11.40
2022-10-30T18:37:05.862Z,11.30
2022-10-30T18:39:34.195Z,11.30
2022-10-30T18:42:02.201Z,11.20
2022-10-30T18:44:30.131Z,11.20
2022-10-30T18:47:02.780Z,11.10
2022-10-30T18:49:33.638Z,11.00
2022-10-30T18:52:01.476Z,11.00
2022-10-30T18:54:29.431Z,11.00
2022-10-30T18:56:57.280Z,11.00
2022-10-30T18:59:25.184Z,11.00
2022-10-30T19:01:53.901Z,11.00
2022-10-30T19:04:22.707Z,10.90
2022-10-30T19:06:52.053Z,10.90
2022-10-30T19:09:20.217Z,10.90
2022-10-30T19:11:48.202Z,10.80
2022-10-30T19:14:16.165Z,10.80
2022-10-30T19:16:44.276Z,10.70
2022-10-30T19:19:15.031Z,10.70
2022-10-30T19:21:43.176Z,10.70
2022-10-30T19:24:15.222Z,10.60
2022-10-30T19:26:43.550Z,10.60
2022-10-30T19:29:11.462Z,10.60
2022-10-30T19:31:39.607Z,10.50
2022-10-30T19:34:07.626Z,10.50
2022-10-30T19:36:37.410Z,10.50
2022-10-30T19:39:11.163Z,10.50
2022-10-30T19:41:41.236Z,10.50
2022-10-30T19:44:09.503Z,10.40
2022-10-30T19:46:37.784Z,10.40
2022-10-30T19:49:16.375Z,10.30
2022-10-30T19:51:44.706Z,10.30
2022-10-30T19:54:12.672Z,10.40
2022-10-30T19:56:43.573Z,10.30
2022-10-30T19:59:12.788Z,10.30
2022-10-30T20:01:41.830Z,10.30
2022-10-30T20:04:10.100Z,10.30
2022-10-30T20:06:38.171Z,10.20
2022-10-30T20:09:06.199Z,10.20
2022-10-30T20:11:34.507Z,10.20
2022-10-30T20:14:03.833Z,10.10
2022-10-30T20:16:31.892Z,10.10
2022-10-30T20:18:59.871Z,10.10
2022-10-30T20:21:28.839Z,10.10
2022-10-30T20:23:56.796Z,10.00
2022-10-30T20:26:27.956Z,10.00
2022-10-30T20:28:56.907Z,10.00
2022-10-30T20:31:26.337Z,9.90
2022-10-30T20:33:54.201Z,10.00
2022-10-30T20:36:22.225Z,9.90
2022-10-30T20:38:50.425Z,9.90
2022-10-30T20:41:23.347Z,9.80
2022-10-30T20:43:51.870Z,9.90
2022-10-30T20:46:20.432Z,9.90
2022-10-30T20:48:49.852Z,9.80
2022-10-30T20:51:17.802Z,9.80
2022-10-30T20:53:46.006Z,9.70
2022-10-30T20:56:14.041Z,9.70
2022-10-30T20:58:42.430Z,9.60
2022-10-30T21:03:50.418Z,9.60
2022-10-30T21:06:18.495Z,9.50
2022-10-30T21:08:46.465Z,9.60
2022-10-30T21:11:14.318Z,9.60
2022-10-30T21:13:42.242Z,9.60
2022-10-30T21:16:10.761Z,9.60
2022-10-30T21:18:38.789Z,9.50
2022-10-30T21:21:11.560Z,9.50
2022-10-30T21:23:39.645Z,9.40
2022-10-30T21:26:09.732Z,9.50
2022-10-30T21:28:38.118Z,9.40
2022-10-30T21:31:07.844Z,9.40
2022-10-30T21:33:37.237Z,9.40
2022-10-30T21:36:12.441Z,9.40
2022-10-30T21:38:42.671Z,9.40
2022-10-30T21:41:11.522Z,9.30
2022-10-30T21:43:39.536Z,9.40
2022-10-30T21:46:08.160Z,9.40
2022-10-30T21:48:36.186Z,9.40
2022-10-30T21:51:11.102Z,9.30
2022-10-30T21:53:39.476Z,9.30
2022-10-30T21:56:09.246Z,9.30
2022-10-30T21:58:37.425Z,9.20
2022-10-30T22:01:06.828Z,9.20
2022-10-30T22:03:35.380Z,9.20
2022-10-30T22:06:07.310Z,9.20
2022-10-30T22:08:36.816Z,9.20
2022-10-30T22:11:06.107Z,9.10
2022-10-30T22:13:34.773Z,9.10
2022-10-30T22:16:03.341Z,9.10
2022-10-30T22:18:31.864Z,9.10
2022-10-30T22:21:02.123Z,9.00
2022-10-30T22:23:30.350Z,9.00
2022-10-30T22:26:01.574Z,9.00
2022-10-30T22:28:31.164Z,9.00
2022-10-30T22:31:03.252Z,9.00
2022-10-30T22:33:32.058Z,8.90
2022-10-30T22:36:03.930Z,8.90
2022-10-30T22:38:31.965Z,8.90
2022-10-30T22:41:10.553Z,8.90
2022-10-30T22:43:38.642Z,8.80
2022-10-30T22:46:06.610Z,8.80
2022-10-30T22:48:34.623Z,8.80
2022-10-30T22:51:04.357Z,8.80
2022-10-30T22:53:33.174Z,8.80
2022-10-30T22:56:01.326Z,8.70
2022-10-30T22:58:31.375Z,8.70
2022-10-30T23:01:10.634Z,8.70
2022-10-30T23:03:38.818Z,8.70
2022-10-30T23:06:06.864Z,8.70
2022-10-30T23:08:35.025Z,8.70
2022-10-30T23:11:03.169Z,8.70
2022-10-30T23:13:32.888Z,8.60
2022-10-30T23:16:01.967Z,8.60
2022-10-30T23:18:30.199Z,8.60
2022-10-30T23:21:02.666Z,8.60
2022-10-30T23:23:30.722Z,8.60
2022-10-30T23:26:03.428Z,8.60
2022-10-30T23:28:33.005Z,8.60
2022-10-30T23:31:01.280Z,8.60
2022-10-30T23:33:29.310Z,8.60
2022-10-30T23:36:00.631Z,8.50
2022-10-30T23:38:28.915Z,8.50
2022-10-30T23:40:57.076Z,8.50
2022-10-30T23:43:25.349Z,8.50
2022-10-30T23:45:54.770Z,8.50
2022-10-30T23:48:22.716Z,8.50
2022-10-30T23:50:50.738Z,8.40
2022-10-30T23:53:18.893Z,8.40
2022-10-30T23:55:53.864Z,8.40
2022-10-30T23:58:22.329Z,8.40
